• Join FlightAware (Why Join?)
  • Login
  • US Flag 
04:42PM EDT


 

Airport Tracker/Info


-or-


 

Live Flight TrackerFlight Track Log ✈ N3QE ✈ 07-Jul-2013 ✈ KSAV - KAPF

Flight Track Log - Related Links

Times and Time Zones

All times are in EDT time to prevent confusion due to time zone crossing. See the N3QE flight status page for this flight to view local times or setup timezone preferences in your user account.

Time Position Orientation Groundspeed Altitude Reporting Facility
EDT Latitude Longitude Course Direction KTS MPH feet Rate Location/Type
01:27PM 32.0447 -81.2111 190° South 184 212 3,000  Level Jacksonville Center
01:28PM 31.9944 -81.1997 169° South 203 234 4,800 1,740 Climbing Jacksonville Center
01:29PM 31.9317 -81.1814 166° South 219 252 6,500 1,800 Climbing Jacksonville Center
01:30PM 31.8606 -81.1756 176° South 232 267 8,500 1,800 Climbing Jacksonville Center
01:31PM 31.8042 -81.1814 185° South 232 267 10,200 1,740 Climbing Jacksonville Center
01:32PM 31.6559 -81.2955 190° South  Level FlightAware Approximate
01:32PM 31.7333 -81.1850 182° South 232 267 12,000  Level Jacksonville Center
01:33PM 31.6686 -81.1889 183° South 239 275 13,200 1,140 Climbing Jacksonville Center
01:34PM 31.6081 -81.1897 181° South 239 275 14,300 1,200 Climbing Jacksonville Center
01:35PM 31.5331 -81.1936 183° South 244 281 15,600 1,140 Climbing Jacksonville Center
01:36PM 31.4642 -81.1972 183° South 251 289 16,600 1,020 Climbing Jacksonville Center
01:37PM 31.4014 -81.1986 181° South 251 289 17,700 900 Climbing Jacksonville Center
01:38PM 31.3328 -81.2069 186° South 251 289 18,400 840 Climbing Jacksonville Center
01:39PM 31.2597 -81.2108 183° South 257 296 19,400 960 Climbing Jacksonville Center
01:40PM 31.1908 -81.2242 189° South 257 296 20,400 960 Climbing Jacksonville Center
01:41PM 31.1222 -81.2425 193° South 257 296 21,400 960 Climbing Jacksonville Center
01:42PM 31.0536 -81.2606 193° South 257 296 22,400 960 Climbing Jacksonville Center
01:43PM 30.9850 -81.2761 191° South 257 296 23,400 900 Climbing Jacksonville Center
01:44PM 30.9161 -81.2919 191° South 257 296 24,300 900 Climbing Jacksonville Center
01:45PM 30.8433 -81.3078 191° South 257 296 25,200 900 Climbing Jacksonville Center
01:46PM 30.7725 -81.3233 191° South 257 296 26,100 900 Climbing Jacksonville Center
01:47PM 30.7017 -81.3392 191° South 257 296 27,000 900 Climbing Jacksonville Center
01:48PM 30.6289 -81.3572 192° South 257 296 27,900 900 Climbing Jacksonville Center
01:49PM 30.5581 -81.3703 189° South 257 296 28,800 900 Climbing Jacksonville Center
01:50PM 30.4853 -81.3883 192° South 257 296 29,700 900 Climbing Jacksonville Center
01:51PM 30.4103 -81.4039 190° South 262 302 30,600 780 Climbing Jacksonville Center
01:52PM 30.3311 -81.4197 190° South 267 307 31,300 600 Climbing Jacksonville Center
01:53PM 30.2519 -81.4378 191° South 279 321 31,800 300 Climbing Jacksonville Center
01:54PM 30.1708 -81.4558 191° South 291 335 32,000 60 Climbing Jacksonville Center
01:55PM 30.0853 -81.4739 190° South 303 349 32,000  Level Jacksonville Center
01:56PM 29.9936 -81.4967 192° South 325 374 32,000  Level Jacksonville Center
01:57PM 29.9022 -81.5172 191° South 335 386 32,000  Level Jacksonville Center
01:58PM 29.8106 -81.5353 190° South 335 386 32,000  Level Jacksonville Center
01:59PM 29.7167 -81.5581 192° South 335 386 32,000  Level Jacksonville Center
02:00PM 29.6231 -81.5786 191° South 335 386 32,000  Level Jacksonville Center
02:01PM 29.5314 -81.5964 190° South 335 386 32,000  Level Jacksonville Center
02:02PM 29.4378 -81.6217 193° South 335 386 32,000  Level Jacksonville Center
02:03PM 29.3439 -81.6419 191° South 340 391 32,000  Level Jacksonville Center
02:04PM 29.2481 -81.6597 189° South 340 391 32,000  Level Jacksonville Center
02:05PM 29.1564 -81.6822 192° South 345 397 32,000  Level Jacksonville Center
02:06PM 29.0628 -81.7025 191° South 345 397 32,000 -300 Level Jacksonville Center
02:08PM 28.9019 -81.7375 191° South 380 437 31,300 -780 Descending Miami Center
02:09PM 28.8053 -81.7594 191° South 366 421 30,000 -1,260 Descending Miami Center
02:10PM 28.7003 -81.7808 190° South 373 429 28,800 -1,200 Descending Miami Center
02:11PM 28.5953 -81.7997 189° South 379 436 27,600 -900 Descending Miami Center
02:12PM 28.4975 -81.7953 178° South 371 427 27,000 -660 Descending Miami Center
02:13PM 28.4022 -81.7747 169° South 351 404 26,300 -840 Descending Miami Center
02:14PM 28.3133 -81.7519 167° South 358 412 25,400 -960 Descending Miami Center
02:15PM 28.2222 -81.7292 168° South 358 412 24,400 -1,020 Descending Miami Center
02:16PM 28.1250 -81.7036 167° South 353 406 23,400 -1,020 Descending Miami Center
02:17PM 28.0319 -81.6833 169° South 353 406 22,400 -1,200 Descending Miami Center
02:18PM 27.9408 -81.6606 168° South 353 406 21,100 -1,680 Descending Miami Center
02:19PM 27.8497 -81.6356 166° South 347 399 19,100 -1,740 Descending Miami Center
02:20PM 27.7669 -81.6181 169° South 329 379 17,700 -1,020 Descending Miami Center
02:21PM 27.6861 -81.5983 168° South 319 367 17,100 -600 Descending Miami Center
02:22PM 27.6011 -81.5783 168° South 313 360 16,600 -540 Descending Miami Center
02:23PM 27.5164 -81.5586 168° South 313 360 16,100 -480 Descending Miami Center
02:24PM 27.4356 -81.5389 168° South 308 354 15,700 -420 Descending Miami Center
02:25PM 27.3528 -81.5192 168° South 308 354 15,300 -480 Descending Miami Center
02:26PM 27.2719 -81.4972 166° South 308 354 14,800 -540 Descending Miami Center
02:27PM 27.1911 -81.4775 168° South 308 354 14,300 -780 Descending Miami Center
02:28PM 27.1125 -81.4628 171° South 303 349 13,300 -1,260 Descending Miami Center
02:29PM 27.0358 -81.4411 166° South 293 337 11,800 -1,200 Descending Miami Center
02:30PM 26.9569 -81.4239 169° South 293 337 11,000 -660 Descending Miami Center
02:31PM 26.8742 -81.4044 168° South 293 337 10,500 -780 Descending Miami Center
02:32PM 26.8033 -81.3969 175° South 271 312 9,500 -1,020 Descending Miami Center
02:33PM 26.7372 -81.4456 213° Southwest 257 296 8,500 -780 Descending Miami Center
02:34PM 26.6692 -81.4847 207° Southwest 276 318 8,000 -300 Descending Miami Center
02:35PM 26.6033 -81.5217 207° Southwest 276 318 8,000  Level Miami Center
02:37PM 26.4748 -81.5751 208° Southwest  Level FlightAware Approximate
02:44PM 26.1500 -81.7667 204° Southwest  Level FlightAware Approximate
02:45PM 26.1524 -81.7756 204° Southwest  Level Estimated
02:46PM 26.1524 -81.7756 204° Southwest  Level Estimated
02:47PM 26.1524 -81.7756 204° Southwest  Level Estimated
02:48PM 26.1524 -81.7756 204° Southwest  Level Estimated
02:49PM 26.1524 -81.7756 204° Southwest  Level Estimated
02:50PM 26.1524 -81.7756 204° Southwest  Level Estimated
02:51PM 26.1524 -81.7756 204° Southwest  Level Estimated
02:52PM 26.1524 -81.7756 204° Southwest  Level Estimated
02:53PM 26.1524 -81.7756 204° Southwest  Level Estimated